createdAt,value
2018-11-14T00:01:00.849Z,93.50
2018-11-14T00:03:30.241Z,93.40
2018-11-14T00:06:01.053Z,93.30
2018-11-14T00:08:31.575Z,93.20
2018-11-14T00:11:00.381Z,93.70
2018-11-14T00:13:29.208Z,94.20
2018-11-14T00:15:57.198Z,94.40
2018-11-14T00:18:25.572Z,94.40
2018-11-14T00:20:53.830Z,94.20
2018-11-14T00:23:22.570Z,94.10
2018-11-14T00:25:51.165Z,94.10
2018-11-14T00:28:19.543Z,94.30
2018-11-14T00:30:48.125Z,94.60
2018-11-14T00:33:17.090Z,94.70
2018-11-14T00:35:45.154Z,94.60
2018-11-14T00:38:19.796Z,94.70
2018-11-14T00:40:48.270Z,94.80
2018-11-14T00:43:16.676Z,94.60
2018-11-14T00:45:45.292Z,94.30
2018-11-14T00:48:13.183Z,94.20
2018-11-14T00:50:41.636Z,94.20
2018-11-14T00:53:09.925Z,94.30
2018-11-14T00:55:37.958Z,94.50
2018-11-14T00:58:06.429Z,94.70
2018-11-14T01:00:34.622Z,94.90
2018-11-14T01:03:02.886Z,95.00
2018-11-14T01:05:30.758Z,94.90
2018-11-14T01:07:59.093Z,95.00
2018-11-14T01:10:27.356Z,94.90
2018-11-14T01:12:55.721Z,94.50
2018-11-14T01:15:24.362Z,94.40
2018-11-14T01:17:53.803Z,94.60
2018-11-14T01:20:22.685Z,94.50
2018-11-14T01:22:51.156Z,94.40
2018-11-14T01:25:20.123Z,94.20
2018-11-14T01:27:48.631Z,94.30
2018-11-14T01:30:18.480Z,94.60
2018-11-14T01:32:47.325Z,94.70
2018-11-14T01:35:20.022Z,95.10
2018-11-14T01:37:48.218Z,95.00
2018-11-14T01:40:23.238Z,94.90
2018-11-14T01:42:56.125Z,94.90
2018-11-14T01:45:25.084Z,95.10
2018-11-14T01:47:53.149Z,95.00
2018-11-14T01:50:23.281Z,94.90
2018-11-14T01:52:51.849Z,94.80
2018-11-14T01:55:20.882Z,94.40
2018-11-14T01:57:49.324Z,94.10
2018-11-14T02:00:20.518Z,94.20
2018-11-14T02:02:48.388Z,93.90
2018-11-14T02:05:16.371Z,94.30
2018-11-14T02:07:44.251Z,94.60
2018-11-14T02:10:13.638Z,94.40
2018-11-14T02:12:42.997Z,94.60
2018-11-14T02:15:14.887Z,95.00
2018-11-14T02:17:43.342Z,95.00
2018-11-14T02:20:12.715Z,95.00
2018-11-14T02:22:42.387Z,94.90
2018-11-14T02:25:11.890Z,94.90
2018-11-14T02:27:40.896Z,94.90
2018-11-14T02:30:12.353Z,94.90
2018-11-14T02:32:40.377Z,95.10
2018-11-14T02:35:09.230Z,95.00
2018-11-14T02:37:37.597Z,95.10
2018-11-14T02:40:09.197Z,95.60
2018-11-14T02:42:38.230Z,95.80
2018-11-14T02:45:06.878Z,95.60
2018-11-14T02:47:35.237Z,95.90
2018-11-14T02:50:03.766Z,95.80
2018-11-14T02:52:32.438Z,96.00
2018-11-14T02:55:00.662Z,95.80
2018-11-14T02:57:29.093Z,95.50
2018-11-14T02:59:57.717Z,95.30
2018-11-14T03:02:25.644Z,95.60
2018-11-14T03:04:54.090Z,95.90
2018-11-14T03:07:23.265Z,95.80
2018-11-14T03:10:08.556Z,96.00
2018-11-14T03:12:37.626Z,96.30
2018-11-14T03:15:08.731Z,95.80
2018-11-14T03:17:37.234Z,95.90
2018-11-14T03:20:11.588Z,95.90
2018-11-14T03:22:40.330Z,95.70
2018-11-14T03:25:10.466Z,96.10
2018-11-14T03:27:39.224Z,96.50
2018-11-14T03:30:11.119Z,96.50
2018-11-14T03:32:40.493Z,96.20
2018-11-14T03:35:09.633Z,96.50
2018-11-14T03:37:38.226Z,96.30
2018-11-14T03:40:08.239Z,96.40
2018-11-14T03:42:36.894Z,96.40
2018-11-14T03:45:06.532Z,96.50
2018-11-14T03:47:34.865Z,96.30
2018-11-14T03:50:03.398Z,95.80
2018-11-14T03:52:31.962Z,95.80
2018-11-14T03:55:00.842Z,95.80
2018-11-14T03:57:29.755Z,96.00
2018-11-14T03:59:57.789Z,96.10
2018-11-14T04:02:26.180Z,96.10
2018-11-14T04:04:54.766Z,96.00
2018-11-14T04:07:23.118Z,96.10
2018-11-14T04:09:51.969Z,96.10
2018-11-14T04:12:20.004Z,96.00
2018-11-14T04:14:48.196Z,95.90
2018-11-14T04:17:16.619Z,96.00
2018-11-14T04:19:45.490Z,96.20
2018-11-14T04:22:14.090Z,96.10
2018-11-14T04:24:42.496Z,96.40
2018-11-14T04:27:11.683Z,96.60
2018-11-14T04:29:39.959Z,96.60
2018-11-14T04:32:08.562Z,96.90
2018-11-14T04:34:37.353Z,97.00
2018-11-14T04:37:05.830Z,97.10
2018-11-14T04:39:34.465Z,96.90
2018-11-14T04:42:02.255Z,96.20
2018-11-14T04:44:30.248Z,96.00
2018-11-14T04:46:58.291Z,96.10
2018-11-14T04:49:26.913Z,95.90
2018-11-14T04:51:55.914Z,96.20
2018-11-14T04:54:24.037Z,95.80
2018-11-14T04:56:52.277Z,95.80
2018-11-14T04:59:20.267Z,96.00
2018-11-14T05:01:48.803Z,96.10
2018-11-14T05:04:17.128Z,95.50
2018-11-14T05:06:45.446Z,95.70
2018-11-14T05:09:13.465Z,95.90
2018-11-14T05:11:42.929Z,95.70
2018-11-14T05:14:11.987Z,95.90
2018-11-14T05:16:40.430Z,95.60
2018-11-14T05:19:08.379Z,95.80
2018-11-14T05:21:36.525Z,95.50
2018-11-14T05:24:04.792Z,95.30
2018-11-14T05:26:32.965Z,95.20
2018-11-14T05:29:01.390Z,95.00
2018-11-14T05:31:29.884Z,95.10
2018-11-14T05:33:58.050Z,95.50
2018-11-14T05:36:26.076Z,95.80
2018-11-14T05:38:54.226Z,95.80
2018-11-14T05:41:22.299Z,95.90
2018-11-14T05:43:51.032Z,96.20
2018-11-14T05:46:19.519Z,96.30
2018-11-14T05:48:47.560Z,95.90
2018-11-14T05:51:15.639Z,96.00
2018-11-14T05:53:43.312Z,96.20
2018-11-14T05:56:11.060Z,96.20
2018-11-14T05:58:38.807Z,95.80
2018-11-14T06:01:07.318Z,95.80
2018-11-14T06:03:35.741Z,96.00
2018-11-14T06:06:10.336Z,96.10
2018-11-14T06:08:38.346Z,96.30
2018-11-14T06:11:06.341Z,96.10
2018-11-14T06:13:34.174Z,96.10
2018-11-14T06:16:04.310Z,96.20
2018-11-14T06:18:33.690Z,95.70
2018-11-14T06:21:02.251Z,95.70
2018-11-14T06:23:30.321Z,95.70
2018-11-14T06:25:58.567Z,95.50
2018-11-14T06:28:26.585Z,95.80
2018-11-14T06:30:55.160Z,95.80
2018-11-14T06:33:23.600Z,96.20
2018-11-14T06:35:51.703Z,96.20
2018-11-14T06:38:20.013Z,96.00
2018-11-14T06:40:48.258Z,96.00
2018-11-14T06:43:18.184Z,95.80
2018-11-14T06:45:46.626Z,95.90
2018-11-14T06:48:14.397Z,96.30
2018-11-14T06:50:42.244Z,96.20
2018-11-14T06:53:10.595Z,95.80
2018-11-14T06:55:38.909Z,96.20
2018-11-14T06:58:07.086Z,96.30
2018-11-14T07:00:35.629Z,96.20
2018-11-14T07:03:05.948Z,96.40
2018-11-14T07:05:34.079Z,96.20
2018-11-14T07:08:02.425Z,95.90
2018-11-14T07:10:32.326Z,95.90
2018-11-14T07:13:05.369Z,95.90
2018-11-14T07:15:33.574Z,96.20
2018-11-14T07:18:02.174Z,96.20
2018-11-14T07:20:32.313Z,95.90
2018-11-14T07:23:00.120Z,95.80
2018-11-14T07:25:27.869Z,95.90
2018-11-14T07:27:56.005Z,96.20
2018-11-14T07:30:29.548Z,95.90
2018-11-14T07:33:00.867Z,96.00
2018-11-14T07:35:28.869Z,96.30
2018-11-14T07:38:07.325Z,96.30
2018-11-14T07:40:35.025Z,96.20
2018-11-14T07:43:02.820Z,96.40
2018-11-14T07:45:31.492Z,96.40
2018-11-14T07:47:59.299Z,96.70
2018-11-14T07:50:27.382Z,96.60
2018-11-14T07:52:55.493Z,96.50
2018-11-14T07:55:23.561Z,96.40
2018-11-14T07:57:51.699Z,96.40
2018-11-14T08:00:19.617Z,96.40
2018-11-14T08:02:47.660Z,96.70
2018-11-14T08:05:16.574Z,96.90
2018-11-14T08:07:44.498Z,97.20
2018-11-14T08:10:12.859Z,96.70
2018-11-14T08:12:40.742Z,96.80
2018-11-14T08:15:10.526Z,96.60
2018-11-14T08:17:38.661Z,96.50
2018-11-14T08:20:09.508Z,96.40
2018-11-14T08:22:37.798Z,96.40
2018-11-14T08:25:07.055Z,96.50
2018-11-14T08:27:47.543Z,96.50
2018-11-14T08:30:15.231Z,95.50
2018-11-14T08:32:43.057Z,95.60
2018-11-14T08:35:11.212Z,95.60
2018-11-14T08:37:40.590Z,95.60
2018-11-14T08:40:09.429Z,96.10
2018-11-14T08:42:38.269Z,96.00
2018-11-14T08:45:13.498Z,95.70
2018-11-14T08:47:41.930Z,95.90
2018-11-14T08:50:14.194Z,96.10
2018-11-14T08:52:42.429Z,96.40
2018-11-14T08:55:11.464Z,96.30
2018-11-14T08:57:40.621Z,95.80
2018-11-14T09:00:12.463Z,96.10
2018-11-14T09:02:40.265Z,96.00
2018-11-14T09:05:08.898Z,96.20
2018-11-14T09:07:37.307Z,96.30
2018-11-14T09:10:08.151Z,96.30
2018-11-14T09:12:36.519Z,95.50
2018-11-14T09:15:05.464Z,95.70
2018-11-14T09:17:33.435Z,95.90
2018-11-14T09:20:01.456Z,95.90
2018-11-14T09:22:29.320Z,95.10
2018-11-14T09:24:57.217Z,95.10
2018-11-14T09:27:25.019Z,95.40
2018-11-14T09:29:52.927Z,95.40
2018-11-14T09:32:20.610Z,95.70
2018-11-14T09:34:48.428Z,95.90
2018-11-14T09:37:16.196Z,96.40
2018-11-14T09:39:43.937Z,96.10
2018-11-14T09:42:11.668Z,95.70
2018-11-14T09:44:39.398Z,96.00
2018-11-14T09:47:07.273Z,96.20
2018-11-14T09:49:35.042Z,96.30
2018-11-14T09:52:02.826Z,96.30
2018-11-14T09:54:30.653Z,96.50
2018-11-14T09:56:58.724Z,96.40
2018-11-14T09:59:26.585Z,96.40
2018-11-14T10:01:54.413Z,96.30
2018-11-14T10:04:22.200Z,96.10
2018-11-14T10:06:49.813Z,96.30
2018-11-14T10:09:17.487Z,96.20
2018-11-14T10:11:45.225Z,96.30
2018-11-14T10:14:12.892Z,96.50
2018-11-14T10:16:41.138Z,96.30
2018-11-14T10:19:10.438Z,96.20
2018-11-14T10:21:38.701Z,96.20
2018-11-14T10:24:06.561Z,96.30
2018-11-14T10:26:34.438Z,96.30
2018-11-14T10:29:02.506Z,96.10
2018-11-14T10:31:30.656Z,95.80
2018-11-14T10:33:58.445Z,95.90
2018-11-14T10:36:26.175Z,96.00
2018-11-14T10:38:54.101Z,95.70
2018-11-14T10:41:21.971Z,95.60
2018-11-14T10:43:49.837Z,95.80
2018-11-14T10:46:17.590Z,96.00
2018-11-14T10:48:45.513Z,95.80
2018-11-14T10:51:13.381Z,95.80
2018-11-14T10:53:41.370Z,96.10
2018-11-14T10:56:09.370Z,96.00
2018-11-14T10:58:37.286Z,96.20
2018-11-14T11:01:11.414Z,95.20
2018-11-14T11:03:45.266Z,95.40
2018-11-14T11:06:18.497Z,95.10
2018-11-14T11:08:51.978Z,95.60
2018-11-14T11:11:25.428Z,95.50
2018-11-14T11:14:08.782Z,95.80
2018-11-14T11:16:41.247Z,95.60
2018-11-14T11:19:09.410Z,95.60
2018-11-14T11:21:37.402Z,95.60
2018-11-14T11:24:05.354Z,95.50
2018-11-14T11:26:33.642Z,95.60
2018-11-14T11:29:01.783Z,95.40
2018-11-14T11:31:29.966Z,94.90
2018-11-14T11:33:57.769Z,94.60
2018-11-14T11:36:25.831Z,94.70
2018-11-14T11:38:53.749Z,94.70
2018-11-14T11:41:22.013Z,95.00
2018-11-14T11:43:50.664Z,95.10
2018-11-14T11:46:18.537Z,94.80
2018-11-14T11:48:46.384Z,95.10
2018-11-14T11:51:14.140Z,94.90
2018-11-14T11:53:42.010Z,95.00
2018-11-14T11:56:10.465Z,94.80
2018-11-14T11:58:38.314Z,95.10
2018-11-14T12:01:11.628Z,94.30
2018-11-14T12:03:43.513Z,94.10
2018-11-14T12:06:12.490Z,94.20
2018-11-14T12:08:42.340Z,94.40
2018-11-14T12:11:14.480Z,94.60
2018-11-14T12:16:25.722Z,94.50
2018-11-14T12:18:56.667Z,94.20
2018-11-14T12:21:26.490Z,94.20
2018-11-14T12:23:57.797Z,94.30
2018-11-14T12:26:31.592Z,94.10
2018-11-14T12:29:05.020Z,93.70
2018-11-14T12:31:36.590Z,93.60
2018-11-14T12:34:09.179Z,93.60
2018-11-14T12:36:39.562Z,93.70
2018-11-14T12:39:15.441Z,94.00
2018-11-14T12:41:53.929Z,94.00
2018-11-14T12:44:29.016Z,93.80
2018-11-14T12:47:04.122Z,93.40
2018-11-14T12:49:40.274Z,93.10
2018-11-14T12:52:10.518Z,92.90
2018-11-14T12:54:38.730Z,92.90
2018-11-14T12:57:06.550Z,92.60
2018-11-14T12:59:34.758Z,92.60
2018-11-14T13:02:05.106Z,92.30
2018-11-14T13:04:32.887Z,91.90
2018-11-14T13:07:00.745Z,91.90
2018-11-14T13:09:28.549Z,92.00
2018-11-14T13:11:56.876Z,91.90
2018-11-14T13:14:26.106Z,91.70
2018-11-14T13:16:54.686Z,91.60
2018-11-14T13:19:23.717Z,91.40
2018-11-14T13:21:51.455Z,91.30
2018-11-14T13:24:29.702Z,91.00
2018-11-14T13:27:11.975Z,91.00
2018-11-14T13:29:50.995Z,91.00
2018-11-14T13:32:30.045Z,90.80
2018-11-14T13:35:03.910Z,90.80
2018-11-14T13:37:45.761Z,91.00
2018-11-14T13:40:24.517Z,91.00
2018-11-14T13:42:52.776Z,90.90
2018-11-14T13:45:21.694Z,90.80
2018-11-14T13:47:50.185Z,90.70
2018-11-14T13:50:20.057Z,90.50
2018-11-14T13:52:49.326Z,90.60
2018-11-14T13:55:18.350Z,90.50
2018-11-14T13:57:48.136Z,90.40
2018-11-14T14:00:17.703Z,90.50
2018-11-14T14:02:45.884Z,90.10
2018-11-14T14:05:17.606Z,90.20
2018-11-14T14:07:47.350Z,90.00
2018-11-14T14:10:17.934Z,90.00
2018-11-14T14:12:49.853Z,89.80
2018-11-14T14:15:22.537Z,89.10
2018-11-14T14:17:52.859Z,88.00
2018-11-14T14:20:23.107Z,88.10
2018-11-14T14:22:51.475Z,87.60
2018-11-14T14:25:22.514Z,86.70
2018-11-14T14:27:52.213Z,86.50
2018-11-14T14:30:21.926Z,86.70
2018-11-14T14:32:52.062Z,86.50
2018-11-14T14:35:22.139Z,86.50
2018-11-14T14:37:52.787Z,86.50
2018-11-14T14:40:21.958Z,86.40
2018-11-14T14:42:50.013Z,86.30
2018-11-14T14:45:21.231Z,86.60
2018-11-14T14:47:57.781Z,86.30
2018-11-14T14:50:27.838Z,86.00
2018-11-14T14:52:59.451Z,85.70
2018-11-14T14:55:27.823Z,86.10
2018-11-14T14:57:57.870Z,86.20
2018-11-14T15:00:27.462Z,86.50
2018-11-14T15:03:00.740Z,86.20
2018-11-14T15:05:29.953Z,86.10
2018-11-14T15:08:01.158Z,86.40
2018-11-14T15:10:30.811Z,87.40
2018-11-14T15:13:00.847Z,86.80
2018-11-14T15:15:31.714Z,86.70
2018-11-14T15:17:59.915Z,86.80
2018-11-14T15:20:30.326Z,87.30
2018-11-14T15:23:05.224Z,87.50
2018-11-14T15:25:33.951Z,87.90
2018-11-14T15:28:02.429Z,88.20
2018-11-14T15:30:37.514Z,88.30
2018-11-14T15:33:05.598Z,88.90
2018-11-14T15:35:33.850Z,89.40
2018-11-14T15:38:03.234Z,89.10
2018-11-14T15:40:31.979Z,89.60
2018-11-14T15:43:00.129Z,90.10
2018-11-14T15:45:28.969Z,90.10
2018-11-14T15:47:56.931Z,90.10
2018-11-14T15:50:27.278Z,90.50
2018-11-14T15:52:56.483Z,90.80
2018-11-14T15:55:24.625Z,91.00
2018-11-14T15:57:52.836Z,92.00
2018-11-14T16:00:26.833Z,92.20
2018-11-14T16:02:55.453Z,92.40
2018-11-14T16:05:24.744Z,92.50
2018-11-14T16:07:53.991Z,92.60
2018-11-14T16:10:22.907Z,92.70
2018-11-14T16:12:50.843Z,92.70
2018-11-14T16:15:28.519Z,92.60
2018-11-14T16:17:57.171Z,92.40
2018-11-14T16:20:26.382Z,92.50
2018-11-14T16:22:55.268Z,92.60
2018-11-14T16:25:24.834Z,92.70
2018-11-14T16:27:54.295Z,92.90
2018-11-14T16:30:25.670Z,92.90
2018-11-14T16:32:55.116Z,93.00
2018-11-14T16:35:23.117Z,93.10
2018-11-14T16:38:03.812Z,93.10
2018-11-14T16:40:33.236Z,93.40
2018-11-14T16:43:06.102Z,93.60
2018-11-14T16:45:34.586Z,93.80
2018-11-14T16:48:02.925Z,94.00
2018-11-14T16:50:31.476Z,94.30
2018-11-14T16:52:59.617Z,94.40
2018-11-14T16:55:28.372Z,94.50
2018-11-14T16:57:58.414Z,94.60
2018-11-14T17:00:30.709Z,94.60
2018-11-14T17:03:00.840Z,94.60
2018-11-14T17:05:30.454Z,94.70
2018-11-14T17:08:07.014Z,94.70
2018-11-14T17:10:35.318Z,94.70
2018-11-14T17:13:12.886Z,94.80
2018-11-14T17:15:48.134Z,94.90
2018-11-14T17:18:17.823Z,94.90
2018-11-14T17:20:47.866Z,95.00
2018-11-14T17:23:16.750Z,95.00
2018-11-14T17:25:45.700Z,94.90
2018-11-14T17:28:14.002Z,95.00
2018-11-14T17:30:48.841Z,95.00
2018-11-14T17:33:17.551Z,95.10
2018-11-14T17:35:46.139Z,95.00
2018-11-14T17:38:18.393Z,94.90
2018-11-14T17:40:46.748Z,94.90
2018-11-14T17:43:15.568Z,94.70
2018-11-14T17:45:46.906Z,94.50
2018-11-14T17:48:17.374Z,94.60
2018-11-14T17:50:45.929Z,94.30
2018-11-14T17:53:14.288Z,94.10
2018-11-14T17:55:43.504Z,94.00
2018-11-14T17:58:11.967Z,94.40
2018-11-14T18:00:40.414Z,94.30
2018-11-14T18:15:13.490Z,95.10
2018-11-14T18:17:44.954Z,95.20
2018-11-14T18:20:16.348Z,95.20
2018-11-14T18:22:52.280Z,95.10
2018-11-14T18:25:23.978Z,95.40
2018-11-14T18:27:55.583Z,95.30
2018-11-14T18:30:30.181Z,95.10
2018-11-14T18:33:01.063Z,95.00
2018-11-14T18:35:34.302Z,95.00
2018-11-14T18:38:08.174Z,95.10
2018-11-14T18:40:36.712Z,95.00
2018-11-14T18:43:05.296Z,94.90
2018-11-14T18:45:34.956Z,94.80
2018-11-14T18:48:04.203Z,94.80
2018-11-14T18:50:31.994Z,95.20
2018-11-14T18:53:00.346Z,94.80
2018-11-14T18:55:30.060Z,94.90
2018-11-14T18:57:59.214Z,94.70
2018-11-14T19:00:29.075Z,94.80
2018-11-14T19:02:58.044Z,94.60
2018-11-14T19:05:27.064Z,94.60
2018-11-14T19:07:59.159Z,94.70
2018-11-14T19:10:30.821Z,94.90
2018-11-14T19:13:00.098Z,94.90
2018-11-14T19:15:38.293Z,94.70
2018-11-14T19:18:06.765Z,94.60
2018-11-14T19:20:36.245Z,94.40
2018-11-14T19:23:06.080Z,94.30
2018-11-14T19:25:36.949Z,94.30
2018-11-14T19:28:09.850Z,94.10
2018-11-14T19:30:38.472Z,93.90
2018-11-14T19:33:06.695Z,93.90
2018-11-14T19:35:53.918Z,93.80
2018-11-14T19:38:23.562Z,93.90
2018-11-14T19:40:57.031Z,94.30
2018-11-14T19:43:25.543Z,94.70
2018-11-14T19:48:30.100Z,94.70
2018-11-14T19:51:07.434Z,94.60
2018-11-14T19:53:36.868Z,94.70
2018-11-14T19:56:07.393Z,94.70
2018-11-14T19:58:37.071Z,94.60
2018-11-14T20:01:07.172Z,94.70
2018-11-14T20:03:47.992Z,94.40
2018-11-14T20:06:17.255Z,94.30
2018-11-14T20:08:46.418Z,94.30
2018-11-14T20:11:27.768Z,94.00
2018-11-14T20:13:58.333Z,94.20
2018-11-14T20:16:27.513Z,94.60
2018-11-14T20:18:55.971Z,94.90
2018-11-14T20:21:24.605Z,95.10
2018-11-14T20:23:52.554Z,95.00
2018-11-14T20:26:21.335Z,94.90
2018-11-14T20:28:49.224Z,94.80
2018-11-14T20:31:19.025Z,94.70
2018-11-14T20:33:46.729Z,94.70
2018-11-14T20:36:14.552Z,94.80
2018-11-14T20:38:42.413Z,94.80
2018-11-14T20:41:10.267Z,94.60
2018-11-14T20:43:38.490Z,94.40
2018-11-14T20:46:07.128Z,94.30
2018-11-14T20:48:34.765Z,94.20
2018-11-14T20:51:04.394Z,94.20
2018-11-14T20:53:32.337Z,93.90
2018-11-14T20:56:00.593Z,93.80
2018-11-14T20:58:28.380Z,93.60
2018-11-14T21:00:56.676Z,93.50
2018-11-14T21:06:10.761Z,93.60
2018-11-14T21:08:40.466Z,93.50
2018-11-14T21:11:08.293Z,93.50
2018-11-14T21:13:36.233Z,93.10
2018-11-14T21:16:04.862Z,93.00
2018-11-14T21:18:32.922Z,93.00
2018-11-14T21:21:00.744Z,93.10
2018-11-14T21:23:28.462Z,93.10
2018-11-14T21:25:56.517Z,93.20
2018-11-14T21:28:24.338Z,93.20
2018-11-14T21:30:52.099Z,93.20
2018-11-14T21:33:20.032Z,93.20
2018-11-14T21:35:51.374Z,93.30
2018-11-14T21:38:19.126Z,93.20
2018-11-14T21:40:47.937Z,92.90
2018-11-14T21:43:15.818Z,92.80
2018-11-14T21:45:43.970Z,92.90
2018-11-14T21:48:13.762Z,93.10
2018-11-14T21:50:44.331Z,93.20
2018-11-14T21:53:12.597Z,93.10
2018-11-14T21:55:40.546Z,93.10
2018-11-14T21:58:09.464Z,93.10
2018-11-14T22:00:39.249Z,93.10
2018-11-14T22:03:10.702Z,93.10
2018-11-14T22:05:40.613Z,92.90
2018-11-14T22:08:09.845Z,92.80
2018-11-14T22:10:37.943Z,92.90
2018-11-14T22:13:07.326Z,92.70
2018-11-14T22:15:35.475Z,92.40
2018-11-14T22:18:04.674Z,92.40
2018-11-14T22:20:33.502Z,92.30
2018-11-14T22:23:02.666Z,92.50
2018-11-14T22:25:32.678Z,92.50
2018-11-14T22:28:01.265Z,92.50
2018-11-14T22:30:31.426Z,92.60
2018-11-14T22:33:01.318Z,92.60
2018-11-14T22:35:32.439Z,92.70
2018-11-14T22:38:02.260Z,92.80
2018-11-14T22:40:32.100Z,92.90
2018-11-14T22:43:00.567Z,93.10
2018-11-14T22:45:33.875Z,92.90
2018-11-14T22:48:02.591Z,93.10
2018-11-14T22:50:32.214Z,93.20
2018-11-14T22:53:06.873Z,93.30
2018-11-14T22:55:35.406Z,93.30
2018-11-14T22:58:05.250Z,93.40
2018-11-14T23:00:45.717Z,93.30
2018-11-14T23:03:14.609Z,93.40
2018-11-14T23:05:43.495Z,93.50
2018-11-14T23:08:13.293Z,93.60
2018-11-14T23:10:41.168Z,93.50
2018-11-14T23:13:11.565Z,93.70
2018-11-14T23:15:42.535Z,93.90
2018-11-14T23:18:11.905Z,93.60
2018-11-14T23:20:40.387Z,93.40
2018-11-14T23:23:09.176Z,93.40
2018-11-14T23:25:37.922Z,93.40
2018-11-14T23:28:06.760Z,93.70
2018-11-14T23:30:36.366Z,93.80
2018-11-14T23:33:05.249Z,94.10
2018-11-14T23:35:33.795Z,94.40
2018-11-14T23:38:04.811Z,94.30
2018-11-14T23:40:33.635Z,94.30
2018-11-14T23:43:02.368Z,94.30
2018-11-14T23:45:31.201Z,94.30
2018-11-14T23:48:00.030Z,94.60
2018-11-14T23:50:30.220Z,94.60
2018-11-14T23:53:00.518Z,94.60
2018-11-14T23:55:29.761Z,94.90
2018-11-14T23:57:58.735Z,94.70
